Ischia Jet — IOBI — position and weather

sailwx.info

Track history (hours):
 
Tides and Currents Weather Stations Pressure Air Temp Water Temp Dewpoint Dewpoint Depression Visibility Wind Speed Wind Dir Waves Ship Positions

Ischia Jet

Last reported at 2015-Feb-27 18:06 UTC. Time now 2015-Feb-28 20:49 UTC.
Position N 40°38' E 014°23'.

Length 42 m; draft 1.2 m.

Type: Passenger vessel. MMSI: 247048700.

Date/timePositionNaut miles runAvg speedWind from/ knotsBaromVisibWave heightAir tempDewpointWater temp
2015-Feb-27 18:06N 40°38' E 014°23'9 4.7
2015-Feb-27 16:07N 40°46' E 014°17'1322.0
2015-Feb-27 15:32N 40°33' E 014°14'0 0.0
2015-Feb-27 14:33N 40°33' E 014°14'17 8.0
2015-Feb-27 12:27N 40°50' E 014°16'1718.0
2015-Feb-27 11:31N 40°33' E 014°14'1713.8
2015-Feb-27 10:19N 40°50' E 014°17'1721.7
2015-Feb-27 09:33N 40°33' E 014°14'9 3.0
2015-Feb-27 06:30N 40°41' E 014°22'3 3.0
2015-Feb-27 05:31N 40°38' E 014°23'0 0.0
2015-Feb-26 18:08N 40°38' E 014°23'12 6.7
2015-Feb-26 16:18N 40°49' E 014°17'1621.0
2015-Feb-26 15:33N 40°33' E 014°15'0 0.1
2015-Feb-26 14:33N 40°33' E 014°14'9 1.2
2015-Feb-26 06:32N 40°41' E 014°21'4 0.2
2015-Feb-25 14:33N 40°38' E 014°23'0 0.0
2015-Feb-25 13:27N 40°38' E 014°23'0 0.0
2015-Feb-25 12:32N 40°38' E 014°23'0 0.0
2015-Feb-25 11:32N 40°38' E 014°23'0 0.0
2015-Feb-25 10:20N 40°38' E 014°23'0 0.0
2015-Feb-25 09:32N 40°38' E 014°23'0 0.0
2015-Feb-25 08:32N 40°38' E 014°23'0 0.0
2015-Feb-25 07:29N 40°38' E 014°23'0 0.0
2015-Feb-25 06:30N 40°38' E 014°23'0 0.0
2015-Feb-24 18:12N 40°38' E 014°23'1219.5
2015-Feb-24 17:33N 40°49' E 014°17'3 2.5
2015-Feb-24 16:12N 40°46' E 014°18'1319.6
2015-Feb-24 15:32N 40°33' E 014°14'4 3.8
2015-Feb-24 14:28N 40°37' E 014°17'11 5.2
2015-Feb-24 12:23N 40°48' E 014°18'1416.4
2015-Feb-24 11:30N 40°33' E 014°14'9 1.9
2015-Feb-24 06:31N 40°41' E 014°22'3 3.4
2015-Feb-24 05:32N 40°38' E 014°23'0 0.0
2015-Feb-23 18:08N 40°38' E 014°23'14 1.3
2015-Feb-23 07:28N 40°51' E 014°16'1111.0
2015-Feb-23 06:30N 40°41' E 014°22'  
2015-Feb-20 18:08N 40°38' E 014°23'11 5.8
2015-Feb-20 16:15N 40°48' E 014°18'1520.3
2015-Feb-20 15:31N 40°33' E 014°14'0 0.0
2015-Feb-20 14:33N 40°33' E 014°14'16 7.2
2015-Feb-20 12:21N 40°49' E 014°17'1619.1
2015-Feb-20 11:32N 40°33' E 014°14'1613.1
2015-Feb-20 10:17N 40°50' E 014°17'1622.1
2015-Feb-20 09:32N 40°33' E 014°14'8 2.6
2015-Feb-20 06:25N 40°39' E 014°22'1 1.2
2015-Feb-20 05:33N 40°38' E 014°23'0 0.0
2015-Feb-19 18:05N 40°38' E 014°23'13 1.4
2015-Feb-19 08:14N 40°50' E 014°16'7 9.6
2015-Feb-19 07:30N 40°44' E 014°20'7 6.9
2015-Feb-19 06:33N 40°38' E 014°23'0 0.0
2015-Feb-18 18:08N 40°38' E 014°23'3 0.2
2015-Feb-18 06:29N 40°41' E 014°22'  
Track history (hours):
 
Tides and Currents Weather Stations Pressure Air Temp Water Temp Dewpoint Dewpoint Depression Visibility Wind Speed Wind Dir Waves Ship Positions

Ischia Jet

Last reported at 2015-Feb-27 18:06 UTC. Time now 2015-Feb-28 20:49 UTC.
Position N 40°38' E 014°23'.

Length 42 m; draft 1.2 m.

Type: Passenger vessel. MMSI: 247048700.

Date/timePositionNaut miles runAvg speedWind from/ knotsBaromVisibWave heightAir tempDewpointWater temp
2015-Feb-27 18:06N 40°38' E 014°23'9 4.7
2015-Feb-27 16:07N 40°46' E 014°17'1322.0
2015-Feb-27 15:32N 40°33' E 014°14'0 0.0
2015-Feb-27 14:33N 40°33' E 014°14'17 8.0
2015-Feb-27 12:27N 40°50' E 014°16'1718.0
2015-Feb-27 11:31N 40°33' E 014°14'1713.8
2015-Feb-27 10:19N 40°50' E 014°17'1721.7
2015-Feb-27 09:33N 40°33' E 014°14'9 3.0
2015-Feb-27 06:30N 40°41' E 014°22'3 3.0
2015-Feb-27 05:31N 40°38' E 014°23'0 0.0
2015-Feb-26 18:08N 40°38' E 014°23'12 6.7
2015-Feb-26 16:18N 40°49' E 014°17'1621.0
2015-Feb-26 15:33N 40°33' E 014°15'0 0.1
2015-Feb-26 14:33N 40°33' E 014°14'9 1.2
2015-Feb-26 06:32N 40°41' E 014°21'4 0.2
2015-Feb-25 14:33N 40°38' E 014°23'0 0.0
2015-Feb-25 13:27N 40°38' E 014°23'0 0.0
2015-Feb-25 12:32N 40°38' E 014°23'0 0.0
2015-Feb-25 11:32N 40°38' E 014°23'0 0.0
2015-Feb-25 10:20N 40°38' E 014°23'0 0.0
2015-Feb-25 09:32N 40°38' E 014°23'0 0.0
2015-Feb-25 08:32N 40°38' E 014°23'0 0.0
2015-Feb-25 07:29N 40°38' E 014°23'0 0.0
2015-Feb-25 06:30N 40°38' E 014°23'0 0.0
2015-Feb-24 18:12N 40°38' E 014°23'1219.5
2015-Feb-24 17:33N 40°49' E 014°17'3 2.5
2015-Feb-24 16:12N 40°46' E 014°18'1319.6
2015-Feb-24 15:32N 40°33' E 014°14'4 3.8
2015-Feb-24 14:28N 40°37' E 014°17'11 5.2
2015-Feb-24 12:23N 40°48' E 014°18'1416.4
2015-Feb-24 11:30N 40°33' E 014°14'9 1.9
2015-Feb-24 06:31N 40°41' E 014°22'3 3.4
2015-Feb-24 05:32N 40°38' E 014°23'0 0.0
2015-Feb-23 18:08N 40°38' E 014°23'14 1.3
2015-Feb-23 07:28N 40°51' E 014°16'1111.0
2015-Feb-23 06:30N 40°41' E 014°22'  
2015-Feb-20 18:08N 40°38' E 014°23'11 5.8
2015-Feb-20 16:15N 40°48' E 014°18'1520.3
2015-Feb-20 15:31N 40°33' E 014°14'0 0.0
2015-Feb-20 14:33N 40°33' E 014°14'16 7.2
2015-Feb-20 12:21N 40°49' E 014°17'1619.1
2015-Feb-20 11:32N 40°33' E 014°14'1613.1
2015-Feb-20 10:17N 40°50' E 014°17'1622.1
2015-Feb-20 09:32N 40°33' E 014°14'8 2.6
2015-Feb-20 06:25N 40°39' E 014°22'1 1.2
2015-Feb-20 05:33N 40°38' E 014°23'0 0.0
2015-Feb-19 18:05N 40°38' E 014°23'13 1.4
2015-Feb-19 08:14N 40°50' E 014°16'7 9.6
2015-Feb-19 07:30N 40°44' E 014°20'7 6.9
2015-Feb-19 06:33N 40°38' E 014°23'0 0.0
2015-Feb-18 18:08N 40°38' E 014°23'3 0.2
2015-Feb-18 06:29N 40°41' E 014°22'  

Dump ship's entire track history